Flight Track Log - Related Links

Times and Time Zones

All times are in EDT time to prevent confusion due to time zone crossing. See the SWA407 flight status page for this flight to view local times or setup timezone preferences in your user account.

Time Position Orientation Groundspeed Altitude Reporting Facility
EDT Latitude Longitude Course Direction KTS MPH feet Rate Location/Type
Thu 01:01:35 AM 32.7856 -117.2861 306° West 195 224 7,500  Level Los Angeles Center
Thu 01:02:36 AM 32.8175 -117.3406 305° West 199 229 11,900 4,000 Climbing Los Angeles Center
Thu 01:03:38 AM 32.8531 -117.3997 306° West 212 244 15,700 3,317 Climbing Los Angeles Center
Thu 01:04:39 AM 32.8969 -117.4689 307° West 250 288 18,700 2,213 Climbing Los Angeles Center
Thu 01:05:40 AM 32.9767 -117.5353 325° Northwest 338 389 20,200 2,705 Climbing Los Angeles Center
Thu 01:06:41 AM 33.0703 -117.6483 315° West 392 451 24,200 3,344 Climbing Los Angeles Center
Thu 01:07:42 AM 33.1539 -117.7447 316° Northwest 410 472 27,000 2,361 Climbing Los Angeles Center
Thu 01:08:43 AM 33.2533 -117.8253 326° Northwest 440 506 29,000 976 Climbing Los Angeles Center
Thu 01:09:45 AM 33.3808 -117.8217 North 460 529 29,000  Level Los Angeles Center
Thu 01:10:46 AM 33.5078 -117.8150 North 459 528 29,000  Level Los Angeles Center
Thu 01:11:47 AM 33.6344 -117.8092 North 460 529 29,000  Level Los Angeles Center
Thu 01:12:48 AM 33.7614 -117.8033 North 460 529 29,000  Level Los Angeles Center
Thu 01:13:50 AM 33.8744 -117.7375 26° Northeast 469 540 29,000  Level Los Angeles Center
Thu 01:14:51 AM 33.9947 -117.6183 39° Northeast 470 541 29,000  Level Los Angeles Center
Thu 01:15:52 AM 34.0928 -117.5136 41° Northeast 473 544 29,000  Level Los Angeles Center
Thu 01:16:54 AM 34.1914 -117.4067 42° Northeast 477 549 29,000  Level Los Angeles Center
Thu 01:17:55 AM 34.2906 -117.3017 41° Northeast 476 548 29,000  Level Los Angeles Center
Thu 01:18:56 AM 34.3956 -117.1892 41° Northeast 474 545 29,000  Level Los Angeles Center
Thu 01:19:57 AM 34.4944 -117.0836 41° Northeast 477 549 29,000  Level Los Angeles Center
Thu 01:20:58 AM 34.5928 -116.9769 42° Northeast 478 550 29,000  Level Los Angeles Center
Thu 01:22:00 AM 34.6911 -116.8703 42° Northeast 478 550 29,000  Level Los Angeles Center
Thu 01:23:01 AM 34.7900 -116.7639 41° Northeast 479 551 29,000 -197 Level Los Angeles Center
Thu 01:24:02 AM 34.8881 -116.6564 42° Northeast 476 548 28,600 -787 Descending Los Angeles Center
Thu 01:25:03 AM 34.9797 -116.5547 42° Northeast 453 521 27,400 -2,016 Descending Los Angeles Center
Thu 01:26:04 AM 35.0783 -116.4311 46° Northeast 426 490 24,500 -1,659 Descending Los Angeles Center
Thu 01:27:06 AM 35.1589 -116.3292 46° Northeast 420 483 24,000 -244 Descending Los Angeles Center
Thu 01:28:07 AM 35.2397 -116.2294 45° Northeast 415 478 24,000  Level Los Angeles Center
Thu 01:29:08 AM 35.3175 -116.1281 47° Northeast 411 473 24,000 -1,230 Level Los Angeles Center
Thu 01:30:09 AM 35.3969 -116.0311 45° Northeast 404 465 21,500 -2,459 Descending Los Angeles Center
Thu 01:31:10 AM 35.4719 -115.9358 46° Northeast 393 452 19,000 -2,656 Descending Los Angeles Center
Thu 01:32:11 AM 35.5558 -115.8267 47° Northeast 389 448 16,100 -2,733 Descending Los Angeles Center
Thu 01:32:51 AM 35.6033 -115.7694 44° Northeast 373 429 14,400 -2,361 Descending Los Angeles Center
Thu 01:33:12 AM 35.6253 -115.7386 49° Northeast 369 425 13,700 -1,592 Descending Los Angeles Center
Thu 01:33:40 AM 35.6558 -115.7025 44° Northeast 358 412 13,100 -689 Descending Los Angeles Center
Thu 01:34:13 AM 35.6917 -115.6561 46° Northeast 349 402 13,000 -109 Descending Los Angeles Center
Thu 01:34:35 AM 35.7156 -115.6278 44° Northeast 318 366 13,000  Level Los Angeles Center
Thu 01:35:14 AM 35.7567 -115.5778 45° Northeast 314 361 13,000  Level Los Angeles Center
Thu 01:35:36 AM 35.7839 -115.5742 North 306 352 13,000  Level Los Angeles Center
Thu 01:36:15 AM 35.8322 -115.5511 21° North 306 352 13,000  Level Los Angeles Center
Thu 01:36:36 AM 35.8597 -115.5258 37° Northeast 312 359 13,000  Level Los Angeles Center
Thu 01:37:16 AM 35.9017 -115.4878 36° Northeast 309 356 13,000 -295 Level Los Angeles Center
Thu 01:37:37 AM 35.9253 -115.4594 44° Northeast 308 354 12,700 -885 Descending Los Angeles Center
Thu 01:38:17 AM 35.9461 -115.4022 66° East 300 345 12,100 -1,254 Descending Los Angeles Center
Thu 01:38:44 AM 35.9644 -115.3511 66° East 306 352 11,300 -1,475 Descending Los Angeles Center
Thu 01:39:18 AM 35.9792 -115.3092 67° East 298 343 10,600 -1,300 Descending Los Angeles Center
Thu 01:39:44 AM 35.9969 -115.2608 66° East 296 341 10,000 -1,180 Descending Los Angeles Center
Thu 01:40:19 AM 36.0122 -115.2200 65° Northeast 292 336 9,400 -1,612 Descending Los Angeles Center
Thu 01:40:51 AM 36.0147 -115.1539 87° East 276 318 8,200 -1,475 Descending Los Angeles Center
Thu 01:41:20 AM 36.0131 -115.1258 94° East 286 329 7,900 -980 Descending Los Angeles Center
Thu 01:41:40 AM 36.0103 -115.0836 95° East 268 308 7,400 -1,377 Descending Los Angeles Center
Thu 01:42:21 AM 36.0069 -115.0225 94° East 261 300 6,500 -1,364 Descending Los Angeles Center
Thu 01:42:46 AM 36.0119 -114.9925 78° East 219 252 5,900 -1,475 Descending Los Angeles Center
Thu 01:43:22 AM 36.0400 -114.9867 10° North 227 261 5,000 -1,279 Descending Los Angeles Center
Thu 01:43:47 AM 36.0631 -114.9889 356° North 189 217 4,600 -885 Descending Los Angeles Center
Thu 01:44:23 AM 36.0808 -115.0003 333° Northwest 188 216 4,100 -984 Descending Los Angeles Center
Thu 01:44:48 AM 36.0786 -115.0211 262° West 140 161 3,600 -740 Descending Los Angeles Center
Thu 01:45:36 AM 36.0736 -115.0456 256° West 153 176 3,200 -627 Descending Los Angeles Center
Thu 01:45:55 AM 36.0742 -115.0703 272° West 122 140 2,900 -689 Descending Los Angeles Center
Thu 01:46:37 AM 36.0728 -115.0925 266° West 129 148 2,500 -492 Descending Los Angeles Center
Thu 01:46:56 AM 36.0739 -115.1078 275° West 116 133 2,400 -492 Descending Los Angeles Center
Thu 01:47:38 AM 36.0736 -115.1303 269° West 118 136 2,000 -571 Descending Los Angeles Center
Thu 01:49:00 AM 36.0667 -115.1500 270° West  Level FlightAware Approximate

Login

Don't have an account? Register now (free) for customized features, flight alerts, and more!